createdAt,value
2023-10-02T00:01:07.913Z,3.95
2023-10-02T00:03:40.602Z,3.73
2023-10-02T00:06:10.933Z,4.43
2023-10-02T00:08:42.998Z,4.35
2023-10-02T00:11:33.120Z,5.55
2023-10-02T00:14:19.372Z,4.30
2023-10-02T00:17:02.091Z,4.17
2023-10-02T00:19:41.269Z,4.78
2023-10-02T00:22:37.687Z,4.70
2023-10-02T00:25:20.881Z,4.63
2023-10-02T00:27:53.223Z,4.50
2023-10-02T00:30:31.806Z,4.97
2023-10-02T00:32:59.623Z,4.20
2023-10-02T00:35:29.028Z,4.93
2023-10-02T00:37:56.817Z,4.93
2023-10-02T00:40:28.420Z,5.30
2023-10-02T00:43:22.028Z,5.33
2023-10-02T00:45:50.565Z,5.18
2023-10-02T00:48:26.980Z,5.05
2023-10-02T00:50:56.295Z,5.60
2023-10-02T00:53:39.200Z,5.40
2023-10-02T00:56:25.311Z,5.13
2023-10-02T00:59:00.147Z,4.60
2023-10-02T01:01:32.554Z,5.60
2023-10-02T01:04:10.963Z,5.35
2023-10-02T01:07:01.316Z,5.20
2023-10-02T01:09:29.006Z,6.13
2023-10-02T01:12:00.227Z,5.68
2023-10-02T01:14:46.408Z,5.32
2023-10-02T01:17:15.667Z,5.18
2023-10-02T01:19:57.028Z,4.78
2023-10-02T01:22:31.550Z,5.30
2023-10-02T01:25:16.890Z,5.30
2023-10-02T01:27:50.166Z,5.15
2023-10-02T01:30:22.846Z,4.90
2023-10-02T01:33:07.937Z,5.30
2023-10-02T01:35:37.937Z,5.97
2023-10-02T01:38:14.293Z,5.95
2023-10-02T01:40:49.809Z,5.65
2023-10-02T01:43:19.215Z,4.85
2023-10-02T01:45:46.853Z,4.40
2023-10-02T01:48:37.779Z,5.03
2023-10-02T01:51:22.079Z,5.25
2023-10-02T01:53:57.858Z,5.20
2023-10-02T01:56:30.588Z,5.30
2023-10-02T01:59:15.710Z,5.78
2023-10-02T02:01:56.345Z,5.83
2023-10-02T02:04:30.224Z,6.20
2023-10-02T02:06:58.772Z,6.38
2023-10-02T02:09:34.428Z,4.80
2023-10-02T02:12:11.300Z,5.68
2023-10-02T02:14:51.195Z,5.03
2023-10-02T02:17:20.745Z,4.40
2023-10-02T02:19:51.679Z,4.88
2023-10-02T02:22:26.797Z,4.50
2023-10-02T02:25:01.661Z,5.20
2023-10-02T02:27:28.885Z,6.10
2023-10-02T02:29:59.021Z,5.10
2023-10-02T02:32:53.925Z,4.53
2023-10-02T02:35:22.604Z,4.60
2023-10-02T02:37:51.467Z,5.38
2023-10-02T02:40:24.649Z,6.10
2023-10-02T02:42:53.377Z,6.40
2023-10-02T02:45:29.257Z,4.50
2023-10-02T02:48:05.324Z,4.78
2023-10-02T02:50:38.901Z,5.05
2023-10-02T02:53:38.835Z,4.70
2023-10-02T02:56:18.869Z,6.00
2023-10-02T02:58:47.086Z,4.57
2023-10-02T03:01:16.270Z,3.70
2023-10-02T03:03:43.943Z,4.00
2023-10-02T03:06:24.077Z,5.67
2023-10-02T03:08:54.316Z,4.75
2023-10-02T03:11:30.157Z,4.10
2023-10-02T03:14:13.419Z,5.60
2023-10-02T03:16:41.882Z,5.93
2023-10-02T03:19:08.714Z,3.67
2023-10-02T03:21:39.685Z,3.85
2023-10-02T03:24:08.541Z,4.05
2023-10-02T03:26:35.140Z,4.88
2023-10-02T03:29:06.282Z,5.57
2023-10-02T03:31:38.537Z,5.20
2023-10-02T03:34:25.218Z,5.70
2023-10-02T03:37:09.400Z,5.28
2023-10-02T03:40:00.511Z,4.72
2023-10-02T03:42:32.206Z,4.07
2023-10-02T03:45:00.733Z,4.50
2023-10-02T03:47:35.150Z,5.15
2023-10-02T03:50:04.082Z,4.60
2023-10-02T03:52:33.379Z,5.53
2023-10-02T03:55:15.479Z,5.05
2023-10-02T03:57:48.840Z,4.93
2023-10-02T04:00:20.442Z,4.75
2023-10-02T04:02:49.917Z,4.07
2023-10-02T04:05:33.136Z,3.58
2023-10-02T04:08:14.636Z,4.90
2023-10-02T04:10:57.944Z,3.80
2023-10-02T04:13:35.056Z,3.72
2023-10-02T04:16:21.851Z,4.72
2023-10-02T04:18:48.687Z,3.55
2023-10-02T04:21:21.122Z,3.85
2023-10-02T04:23:47.730Z,4.33
2023-10-02T04:26:21.087Z,4.65
2023-10-02T04:28:56.658Z,4.80
2023-10-02T04:31:28.893Z,4.40
2023-10-02T04:34:15.228Z,3.40
2023-10-02T04:36:43.262Z,4.23
2023-10-02T04:39:32.281Z,4.68
2023-10-02T04:42:19.283Z,4.97
2023-10-02T04:44:49.892Z,3.78
2023-10-02T04:47:21.458Z,5.18
2023-10-02T04:50:05.254Z,4.33
2023-10-02T04:52:53.244Z,5.50
2023-10-02T04:55:29.322Z,4.97
2023-10-02T04:57:57.723Z,4.90
2023-10-02T05:00:34.345Z,5.20
2023-10-02T05:03:41.483Z,5.10
2023-10-02T05:06:08.094Z,5.50
2023-10-02T05:08:41.993Z,5.47
2023-10-02T05:11:24.822Z,5.53
2023-10-02T05:14:00.885Z,4.88
2023-10-02T05:16:34.115Z,5.43
2023-10-02T05:19:05.165Z,5.57
2023-10-02T05:21:40.050Z,5.78
2023-10-02T05:24:14.024Z,6.00
2023-10-02T05:26:43.376Z,5.15
2023-10-02T05:29:18.567Z,5.50
2023-10-02T05:31:46.657Z,5.68
2023-10-02T05:34:23.138Z,5.75
2023-10-02T05:37:05.959Z,5.47
2023-10-02T05:39:42.249Z,5.97
2023-10-02T05:42:15.154Z,5.07
2023-10-02T05:44:44.068Z,5.60
2023-10-02T05:47:12.525Z,6.25
2023-10-02T05:49:50.142Z,6.28
2023-10-02T05:52:21.926Z,5.20
2023-10-02T05:54:51.065Z,5.43
2023-10-02T05:57:18.336Z,6.78
2023-10-02T05:59:46.890Z,5.95
2023-10-02T06:02:22.302Z,5.75
2023-10-02T06:04:50.598Z,6.22
2023-10-02T06:07:40.270Z,4.57
2023-10-02T06:10:09.948Z,5.68
2023-10-02T06:12:44.004Z,5.80
2023-10-02T06:15:31.414Z,5.75
2023-10-02T06:18:00.101Z,6.97
2023-10-02T06:20:26.757Z,6.67
2023-10-02T06:23:06.794Z,6.53
2023-10-02T06:25:33.739Z,5.80
2023-10-02T06:28:20.238Z,6.05
2023-10-02T06:30:49.144Z,5.97
2023-10-02T06:33:18.089Z,7.40
2023-10-02T06:35:57.500Z,8.73
2023-10-02T06:38:24.698Z,8.48
2023-10-02T06:40:57.835Z,7.10
2023-10-02T06:43:33.585Z,8.30
2023-10-02T06:46:20.133Z,8.80
2023-10-02T06:48:55.609Z,8.02
2023-10-02T06:51:22.692Z,9.90
2023-10-02T06:53:49.216Z,8.82
2023-10-02T06:56:16.513Z,7.45
2023-10-02T06:58:58.116Z,7.37
2023-10-02T07:01:29.468Z,7.53
2023-10-02T07:03:57.645Z,7.95
2023-10-02T07:06:25.470Z,7.25
2023-10-02T07:09:12.143Z,7.32
2023-10-02T07:11:40.675Z,7.17
2023-10-02T07:14:07.835Z,7.43
2023-10-02T07:16:35.203Z,6.72
2023-10-02T07:19:02.879Z,6.80
2023-10-02T07:21:32.207Z,7.72
2023-10-02T07:24:03.842Z,7.60
2023-10-02T07:26:49.494Z,7.88
2023-10-02T07:29:18.730Z,7.55
2023-10-02T07:31:47.591Z,7.75
2023-10-02T07:34:17.120Z,6.70
2023-10-02T07:36:47.016Z,7.40
2023-10-02T07:39:32.117Z,8.35
2023-10-02T07:42:01.911Z,8.43
2023-10-02T07:44:37.992Z,7.25
2023-10-02T07:47:13.064Z,8.88
2023-10-02T07:49:41.092Z,8.70
2023-10-02T07:52:10.777Z,8.88
2023-10-02T07:54:46.295Z,7.70
2023-10-02T07:57:19.451Z,8.43
2023-10-02T07:59:46.142Z,7.38
2023-10-02T08:02:24.884Z,8.27
2023-10-02T08:04:52.984Z,8.07
2023-10-02T08:07:23.805Z,7.95
2023-10-02T08:10:01.636Z,8.20
2023-10-02T08:12:30.791Z,7.53
2023-10-02T08:15:00.260Z,7.90
2023-10-02T08:17:50.139Z,7.45
2023-10-02T08:20:17.948Z,7.43
2023-10-02T08:22:49.316Z,8.35
2023-10-02T08:25:16.412Z,7.70
2023-10-02T08:27:47.700Z,8.10
2023-10-02T08:30:29.270Z,7.78
2023-10-02T08:33:25.115Z,8.48
2023-10-02T08:35:56.301Z,7.88
2023-10-02T08:38:23.383Z,7.50
2023-10-02T08:40:58.509Z,8.40
2023-10-02T08:43:29.990Z,7.30
2023-10-02T08:45:57.841Z,7.28
2023-10-02T08:48:26.278Z,8.25
2023-10-02T08:50:59.025Z,6.95
2023-10-02T08:53:27.297Z,7.87
2023-10-02T08:56:22.840Z,8.02
2023-10-02T08:59:09.823Z,7.78
2023-10-02T09:01:36.456Z,6.95
2023-10-02T09:04:24.098Z,8.00
2023-10-02T09:06:54.379Z,7.93
2023-10-02T09:09:23.952Z,7.05
2023-10-02T09:11:54.765Z,8.00
2023-10-02T09:14:40.703Z,7.35
2023-10-02T09:17:19.460Z,8.00
2023-10-02T09:19:56.596Z,7.97
2023-10-02T09:22:24.934Z,8.52
2023-10-02T09:25:28.026Z,7.55
2023-10-02T09:27:59.296Z,7.07
2023-10-02T09:30:43.724Z,7.78
2023-10-02T09:33:38.097Z,8.03
2023-10-02T09:36:47.068Z,7.30
2023-10-02T09:39:25.361Z,8.05
2023-10-02T09:42:06.857Z,8.18
2023-10-02T09:44:52.318Z,7.95
2023-10-02T09:47:27.003Z,7.67
2023-10-02T09:50:26.354Z,9.25
2023-10-02T09:53:00.969Z,7.80
2023-10-02T09:55:48.740Z,8.25
2023-10-02T09:58:29.757Z,8.65
2023-10-02T10:01:28.874Z,8.20
2023-10-02T10:03:56.447Z,7.60
2023-10-02T10:06:30.900Z,7.28
2023-10-02T10:09:15.926Z,7.72
2023-10-02T10:11:45.524Z,8.57
2023-10-02T10:14:41.124Z,7.87
2023-10-02T10:17:17.628Z,7.78
2023-10-02T10:20:10.282Z,8.23
2023-10-02T10:22:39.947Z,7.90
2023-10-02T10:25:21.887Z,7.00
2023-10-02T10:28:02.958Z,8.27
2023-10-02T10:30:40.602Z,7.80
2023-10-02T10:33:10.895Z,6.93
2023-10-02T10:35:50.111Z,7.30
2023-10-02T10:38:38.564Z,6.88
2023-10-02T10:41:10.836Z,7.30
2023-10-02T10:43:57.636Z,6.57
2023-10-02T10:46:29.489Z,6.45
2023-10-02T10:49:11.308Z,6.30
2023-10-02T10:51:39.661Z,6.75
2023-10-02T10:54:15.872Z,6.80
2023-10-02T10:57:20.449Z,7.30
2023-10-02T10:59:47.463Z,6.80
2023-10-02T11:02:15.832Z,7.22
2023-10-02T11:04:48.981Z,6.82
2023-10-02T11:07:24.266Z,7.07
2023-10-02T11:10:20.156Z,6.50
2023-10-02T11:12:57.493Z,6.28
2023-10-02T11:15:47.966Z,6.32
2023-10-02T11:18:21.579Z,5.80
2023-10-02T11:20:52.827Z,5.73
2023-10-02T11:23:36.619Z,6.97
2023-10-02T11:26:03.274Z,6.72
2023-10-02T11:28:33.989Z,6.13
2023-10-02T11:31:33.513Z,5.45
2023-10-02T11:34:31.709Z,6.33
2023-10-02T11:36:56.103Z,6.40
2023-10-02T11:39:28.641Z,6.63
2023-10-02T11:41:55.821Z,6.13
2023-10-02T11:44:22.514Z,6.05
2023-10-02T11:46:50.012Z,6.10
2023-10-02T11:49:16.978Z,5.43
2023-10-02T11:51:46.275Z,6.45
2023-10-02T11:54:14.756Z,6.30
2023-10-02T11:56:41.927Z,5.95
2023-10-02T11:59:08.726Z,5.23
2023-10-02T12:01:36.448Z,5.20
2023-10-02T12:04:06.037Z,5.03
2023-10-02T12:06:32.852Z,6.40
2023-10-02T12:08:59.944Z,5.43
2023-10-02T12:11:27.417Z,6.30
2023-10-02T12:13:54.033Z,6.05
2023-10-02T12:16:22.786Z,5.68
2023-10-02T12:18:51.790Z,6.88
2023-10-02T12:21:20.684Z,6.53
2023-10-02T12:23:47.926Z,6.13
2023-10-02T12:26:18.749Z,5.88
2023-10-02T12:28:45.577Z,6.32
2023-10-02T12:31:16.515Z,5.75
2023-10-02T12:33:44.072Z,6.15
2023-10-02T12:36:18.468Z,6.17
2023-10-02T12:38:49.077Z,7.05
2023-10-02T12:41:18.234Z,5.47
2023-10-02T12:43:46.700Z,5.93
2023-10-02T12:46:16.715Z,6.28
2023-10-02T12:48:49.891Z,6.30
2023-10-02T12:51:16.851Z,6.85
2023-10-02T12:53:46.527Z,6.57
2023-10-02T12:56:17.283Z,6.95
2023-10-02T12:58:43.773Z,5.68
2023-10-02T13:01:14.613Z,6.33
2023-10-02T13:03:43.584Z,6.05
2023-10-02T13:06:14.458Z,5.80
2023-10-02T13:08:44.727Z,6.10
2023-10-02T13:11:13.665Z,6.82
2023-10-02T13:13:45.714Z,6.13
2023-10-02T13:16:13.241Z,7.00
2023-10-02T13:18:40.884Z,6.40
2023-10-02T13:21:16.051Z,6.50
2023-10-02T13:23:43.221Z,6.68
2023-10-02T13:26:10.187Z,5.87
2023-10-02T13:28:37.159Z,7.30
2023-10-02T13:31:14.420Z,7.72
2023-10-02T13:33:41.961Z,7.20
2023-10-02T13:36:09.117Z,7.43
2023-10-02T13:38:36.693Z,7.50
2023-10-02T13:41:07.797Z,7.85
2023-10-02T13:43:34.383Z,7.30
2023-10-02T13:46:00.887Z,7.43
2023-10-02T13:48:27.769Z,6.88
2023-10-02T13:51:03.294Z,7.67
2023-10-02T13:53:31.827Z,7.45
2023-10-02T13:56:11.035Z,7.40
2023-10-02T13:58:41.599Z,8.63
2023-10-02T14:01:09.674Z,7.47
2023-10-02T14:03:38.029Z,8.10
2023-10-02T14:06:09.318Z,8.00
2023-10-02T14:08:36.602Z,7.32
2023-10-02T14:11:04.020Z,7.20
2023-10-02T14:13:31.916Z,7.60
2023-10-02T14:16:10.236Z,8.37
2023-10-02T14:18:36.867Z,8.07
2023-10-02T14:21:08.192Z,7.47
2023-10-02T14:23:35.756Z,7.93
2023-10-02T14:26:03.449Z,7.10
2023-10-02T14:28:30.347Z,6.90
2023-10-02T14:30:57.349Z,7.28
2023-10-02T14:33:25.178Z,7.05
2023-10-02T14:35:56.833Z,6.55
2023-10-02T14:38:24.533Z,6.22
2023-10-02T14:40:53.118Z,7.03
2023-10-02T14:43:21.670Z,7.25
2023-10-02T14:45:49.066Z,7.30
2023-10-02T14:48:37.358Z,7.20
2023-10-02T14:51:09.483Z,7.55
2023-10-02T14:53:36.156Z,7.47
2023-10-02T14:56:06.488Z,6.22
2023-10-02T14:58:33.923Z,6.93
2023-10-02T15:01:05.431Z,6.22
2023-10-02T15:03:33.736Z,6.90
2023-10-02T15:06:02.192Z,6.60
2023-10-02T15:08:34.958Z,6.82
2023-10-02T15:11:06.013Z,7.40
2023-10-02T15:13:34.794Z,7.13
2023-10-02T15:16:01.903Z,7.38
2023-10-02T15:18:28.507Z,6.40
2023-10-02T15:20:56.460Z,7.07
2023-10-02T15:23:23.607Z,7.05
2023-10-02T15:25:52.599Z,7.00
2023-10-02T15:28:20.437Z,6.30
2023-10-02T15:30:47.156Z,6.17
2023-10-02T15:33:13.962Z,6.38
2023-10-02T15:35:40.794Z,6.70
2023-10-02T15:38:07.513Z,6.90
2023-10-02T15:40:37.703Z,6.32
2023-10-02T15:43:04.768Z,6.10
2023-10-02T15:45:32.899Z,6.32
2023-10-02T15:47:59.891Z,6.65
2023-10-02T15:50:28.504Z,6.80
2023-10-02T15:52:55.738Z,6.63
2023-10-02T15:55:23.739Z,7.30
2023-10-02T15:57:51.354Z,6.63
2023-10-02T16:00:25.951Z,6.50
2023-10-02T16:03:00.241Z,6.93
2023-10-02T16:05:28.913Z,6.93
2023-10-02T16:07:57.327Z,6.13
2023-10-02T16:10:26.172Z,6.57
2023-10-02T16:12:53.882Z,6.68
2023-10-02T16:15:28.786Z,6.82
2023-10-02T16:17:57.309Z,6.93
2023-10-02T16:20:25.074Z,6.70
2023-10-02T16:22:55.324Z,6.95
2023-10-02T16:25:22.037Z,5.60
2023-10-02T16:27:50.815Z,5.35
2023-10-02T16:30:19.568Z,5.47
2023-10-02T16:32:49.797Z,5.70
2023-10-02T16:35:18.747Z,6.72
2023-10-02T16:37:46.973Z,5.72
2023-10-02T16:40:17.269Z,7.30
2023-10-02T16:42:45.638Z,6.55
2023-10-02T16:45:17.245Z,6.57
2023-10-02T16:47:49.479Z,6.78
2023-10-02T16:50:18.068Z,5.93
2023-10-02T16:52:46.944Z,5.85
2023-10-02T16:55:24.909Z,6.72
2023-10-02T16:57:52.321Z,6.73
2023-10-02T17:00:26.014Z,6.80
2023-10-02T17:02:53.281Z,7.15
2023-10-02T17:05:20.673Z,7.22
2023-10-02T17:07:51.379Z,6.53
2023-10-02T17:10:22.176Z,6.93
2023-10-02T17:12:51.554Z,6.18
2023-10-02T17:15:19.978Z,5.55
2023-10-02T17:17:49.227Z,6.75
2023-10-02T17:20:26.588Z,6.65
2023-10-02T17:22:53.346Z,6.50
2023-10-02T17:25:27.381Z,6.15
2023-10-02T17:28:00.122Z,4.10
2023-10-02T17:30:27.580Z,6.18
2023-10-02T17:32:54.777Z,7.55
2023-10-02T17:35:24.409Z,5.83
2023-10-02T17:37:52.085Z,5.40
2023-10-02T17:40:21.776Z,6.90
2023-10-02T17:42:49.155Z,7.40
2023-10-02T17:45:15.810Z,6.22
2023-10-02T17:47:43.921Z,5.50
2023-10-02T17:50:12.632Z,5.50
2023-10-02T17:52:45.174Z,5.65
2023-10-02T17:55:12.053Z,5.68
2023-10-02T17:57:38.763Z,6.13
2023-10-02T18:00:06.121Z,6.40
2023-10-02T18:02:36.619Z,6.78
2023-10-02T18:05:04.552Z,6.70
2023-10-02T18:07:31.385Z,5.93
2023-10-02T18:09:57.913Z,6.55
2023-10-02T18:12:24.592Z,5.87
2023-10-02T18:14:51.356Z,5.43
2023-10-02T18:17:18.307Z,5.57
2023-10-02T18:19:46.456Z,5.88
2023-10-02T18:22:13.530Z,5.97
2023-10-02T18:24:43.768Z,7.23
2023-10-02T18:27:10.909Z,6.40
2023-10-02T18:29:37.749Z,6.40
2023-10-02T18:32:04.569Z,5.03
2023-10-02T18:34:43.075Z,5.63
2023-10-02T18:37:11.415Z,6.07
2023-10-02T18:39:38.223Z,5.68
2023-10-02T18:42:06.256Z,5.70
2023-10-02T18:44:38.863Z,5.68
2023-10-02T18:47:05.606Z,6.60
2023-10-02T18:49:36.504Z,3.80
2023-10-02T18:52:04.161Z,4.95
2023-10-02T18:54:32.201Z,5.97
2023-10-02T18:57:00.146Z,6.55
2023-10-02T18:59:26.754Z,7.30
2023-10-02T19:01:53.344Z,6.00
2023-10-02T19:04:22.143Z,6.65
2023-10-02T19:06:48.957Z,5.30
2023-10-02T19:09:18.855Z,5.68
2023-10-02T19:11:48.659Z,4.82
2023-10-02T19:14:16.600Z,6.33
2023-10-02T19:16:43.606Z,6.68
2023-10-02T19:19:10.274Z,6.45
2023-10-02T19:21:36.823Z,6.82
2023-10-02T19:24:03.847Z,6.55
2023-10-02T19:26:35.310Z,4.10
2023-10-02T19:29:03.094Z,4.18
2023-10-02T19:31:31.345Z,5.07
2023-10-02T19:33:58.031Z,4.88
2023-10-02T19:36:24.580Z,4.13
2023-10-02T19:38:51.642Z,5.40
2023-10-02T19:41:19.096Z,4.82
2023-10-02T19:43:46.060Z,6.18
2023-10-02T19:46:12.897Z,6.10
2023-10-02T19:48:39.971Z,6.40
2023-10-02T19:51:12.652Z,7.53
2023-10-02T19:53:39.466Z,6.03
2023-10-02T19:56:06.503Z,5.65
2023-10-02T19:58:33.591Z,5.40
2023-10-02T20:01:01.121Z,4.65
2023-10-02T20:03:29.393Z,4.30
2023-10-02T20:06:00.476Z,5.68
2023-10-02T20:08:28.200Z,7.75
2023-10-02T20:10:56.949Z,6.28
2023-10-02T20:13:24.104Z,7.57
2023-10-02T20:15:50.805Z,6.53
2023-10-02T20:18:18.140Z,5.35
2023-10-02T20:20:46.935Z,4.47
2023-10-02T20:23:13.554Z,4.72
2023-10-02T20:25:40.146Z,5.28
2023-10-02T20:28:06.902Z,5.40
2023-10-02T20:30:35.837Z,5.78
2023-10-02T20:33:05.321Z,6.25
2023-10-02T20:35:37.365Z,5.32
2023-10-02T20:38:05.919Z,5.63
2023-10-02T20:40:36.497Z,6.10
2023-10-02T20:43:05.259Z,5.22
2023-10-02T20:45:36.092Z,5.05
2023-10-02T20:48:07.985Z,5.80
2023-10-02T20:50:35.002Z,5.65
2023-10-02T20:53:01.606Z,5.70
2023-10-02T20:55:28.325Z,5.53
2023-10-02T20:57:56.744Z,6.03
2023-10-02T21:00:24.926Z,6.70
2023-10-02T21:02:53.021Z,6.57
2023-10-02T21:05:20.060Z,7.23
2023-10-02T21:07:46.821Z,6.60
2023-10-02T21:10:13.457Z,6.63
2023-10-02T21:12:40.097Z,6.95
2023-10-02T21:15:15.961Z,7.45
2023-10-02T21:17:43.354Z,7.97
2023-10-02T21:20:16.207Z,8.13
2023-10-02T21:22:45.646Z,6.75
2023-10-02T21:25:16.681Z,7.13
2023-10-02T21:27:43.607Z,7.40
2023-10-02T21:30:13.992Z,7.93
2023-10-02T21:32:42.744Z,7.53
2023-10-02T21:35:10.559Z,8.45
2023-10-02T21:37:37.392Z,9.13
2023-10-02T21:40:07.410Z,10.07
2023-10-02T21:42:35.567Z,9.87
2023-10-02T21:45:03.280Z,10.27
2023-10-02T21:47:30.733Z,9.90
2023-10-02T21:49:58.225Z,9.77
2023-10-02T21:52:25.018Z,9.88
2023-10-02T21:54:55.228Z,9.53
2023-10-02T21:57:23.568Z,10.23
2023-10-02T21:59:50.828Z,10.27
2023-10-02T22:02:19.317Z,9.10
2023-10-02T22:04:47.044Z,7.90
2023-10-02T22:07:13.848Z,9.47
2023-10-02T22:09:41.105Z,10.65
2023-10-02T22:12:08.873Z,11.93
2023-10-02T22:14:36.434Z,11.68
2023-10-02T22:17:08.523Z,11.88
2023-10-02T22:19:36.243Z,12.73
2023-10-02T22:22:06.981Z,12.52
2023-10-02T22:24:34.675Z,13.13
2023-10-02T22:27:01.369Z,11.93
2023-10-02T22:29:27.981Z,12.32
2023-10-02T22:31:54.611Z,13.10
2023-10-02T22:34:38.517Z,11.88
2023-10-02T22:37:08.366Z,11.85
2023-10-02T22:39:35.343Z,12.25
2023-10-02T22:42:02.260Z,12.27
2023-10-02T22:44:29.545Z,13.10
2023-10-02T22:46:56.423Z,12.77
2023-10-02T22:49:22.940Z,12.13
2023-10-02T22:51:49.955Z,12.98
2023-10-02T22:54:16.643Z,12.20
2023-10-02T22:56:43.177Z,12.30
2023-10-02T22:59:09.841Z,11.23
2023-10-02T23:01:36.483Z,11.35
2023-10-02T23:04:07.516Z,10.65
2023-10-02T23:06:34.282Z,11.88
2023-10-02T23:09:01.224Z,11.90
2023-10-02T23:11:28.625Z,11.90
2023-10-02T23:13:56.130Z,12.30
2023-10-02T23:16:23.666Z,10.90
2023-10-02T23:18:50.753Z,10.57
2023-10-02T23:21:18.212Z,10.93
2023-10-02T23:23:46.132Z,11.70
2023-10-02T23:26:20.008Z,11.60
2023-10-02T23:28:47.179Z,11.63
2023-10-02T23:31:13.924Z,11.20
2023-10-02T23:33:40.687Z,11.50
2023-10-02T23:36:11.428Z,10.65
2023-10-02T23:38:43.484Z,11.10
2023-10-02T23:41:10.936Z,11.57
2023-10-02T23:43:37.861Z,10.20
2023-10-02T23:46:04.565Z,10.83
2023-10-02T23:48:31.511Z,10.85
2023-10-02T23:50:58.297Z,11.35
2023-10-02T23:53:26.006Z,12.38
2023-10-02T23:56:05.046Z,10.60
2023-10-02T23:58:33.375Z,10.13
